Time;durP1;ratioP1;P1;durP2;ratioP2;P2;SDS_P1;SDS_P2;PMS_P1;PMS_P2;Temp;Humidity;BMP_temperature;BMP_pressure;BME280_temperature;BME280_humidity;BME280_pressure;Samples;Min_cycle;Max_cycle;Signal;HPM_P1;HPM_P2
2021/03/23 00:02:00;;;;;;;11.55;7.93;;;5.00;99.90;;;;;;4815188;29;20236;-83
2021/03/23 00:04:26;;;;;;;12.38;7.35;;;5.00;99.90;;;;;;4814971;29;20222;-83
2021/03/23 00:06:53;;;;;;;12.57;7.03;;;4.90;99.90;;;;;;4814750;29;20265;-83
2021/03/23 00:09:20;;;;;;;10.20;8.25;;;4.70;99.90;;;;;;4815034;29;20279;-83
2021/03/23 00:11:46;;;;;;;11.73;8.20;;;4.80;99.90;;;;;;4814784;29;20218;-83
2021/03/23 00:14:14;;;;;;;10.98;8.48;;;4.80;99.90;;;;;;4815558;29;20228;-82
2021/03/23 00:16:45;;;;;;;10.73;8.43;;;4.90;99.90;;;;;;4815670;29;20234;-82
2021/03/23 00:19:13;;;;;;;8.70;7.30;;;5.00;99.90;;;;;;4815422;29;20221;-82
2021/03/23 00:21:40;;;;;;;12.57;8.90;;;4.90;99.90;;;;;;4815035;29;20214;-83
2021/03/23 00:24:07;;;;;;;14.25;12.80;;;4.90;99.90;;;;;;4815319;29;20210;-80
2021/03/23 00:26:34;;;;;;;10.05;7.82;;;5.10;99.90;;;;;;4816048;29;20234;-83
2021/03/23 00:29:01;;;;;;;13.48;8.50;;;5.20;99.90;;;;;;4816414;29;20226;-82
2021/03/23 00:31:29;;;;;;;9.73;6.70;;;5.30;99.90;;;;;;4817131;29;20219;-82
2021/03/23 00:33:55;;;;;;;12.65;7.22;;;5.50;99.90;;;;;;4816868;29;20214;-82
2021/03/23 00:36:29;;;;;;;11.18;7.25;;;5.40;99.90;;;;;;4818446;29;20268;-81
2021/03/23 00:38:56;;;;;;;12.40;8.45;;;5.30;99.90;;;;;;4820058;29;20214;-81
2021/03/23 00:41:22;;;;;;;10.98;9.10;;;5.30;99.90;;;;;;4820042;29;20696;-83
2021/03/23 00:43:50;;;;;;;13.05;7.07;;;5.10;99.90;;;;;;4822021;29;20215;-81
2021/03/23 00:46:16;;;;;;;9.88;7.18;;;5.10;99.90;;;;;;4823813;29;20230;-82
2021/03/23 00:48:42;;;;;;;12.45;8.40;;;5.00;99.90;;;;;;4824892;29;20410;-80
2021/03/23 00:51:08;;;;;;;11.15;9.52;;;4.80;99.90;;;;;;4825196;29;20219;-80
2021/03/23 00:53:35;;;;;;;18.02;9.15;;;5.00;99.90;;;;;;4824470;29;20214;-79
2021/03/23 00:56:01;;;;;;;14.10;10.20;;;4.90;99.90;;;;;;4825163;29;20268;-80
2021/03/23 00:58:28;;;;;;;14.45;7.40;;;4.90;99.90;;;;;;4825001;29;20215;-81
2021/03/23 01:00:55;;;;;;;13.43;9.25;;;5.00;99.90;;;;;;4825088;29;20214;-81
2021/03/23 01:03:21;;;;;;;12.75;8.95;;;5.10;99.90;;;;;;4824759;29;20309;-80
2021/03/23 01:05:49;;;;;;;15.55;8.75;;;5.10;99.90;;;;;;4824294;29;20282;-81
2021/03/23 01:08:16;;;;;;;14.18;8.80;;;5.10;99.90;;;;;;4824976;29;20278;-79
2021/03/23 01:10:42;;;;;;;15.15;9.00;;;5.10;99.90;;;;;;4825379;29;20223;-79
2021/03/23 01:13:09;;;;;;;14.10;8.68;;;5.00;99.90;;;;;;4825453;29;20277;-81
2021/03/23 01:15:35;;;;;;;12.23;9.55;;;5.10;99.90;;;;;;4825309;29;20278;-79
2021/03/23 01:18:02;;;;;;;14.60;9.35;;;5.10;99.90;;;;;;4825292;29;20300;-80
2021/03/23 01:20:30;;;;;;;17.45;9.38;;;5.10;99.90;;;;;;4825237;29;20214;-81
2021/03/23 01:22:57;;;;;;;14.20;10.48;;;5.20;99.90;;;;;;4824669;29;20223;-80
2021/03/23 01:25:24;;;;;;;20.40;9.82;;;5.00;99.90;;;;;;4824719;29;20215;-79
2021/03/23 01:27:50;;;;;;;19.00;10.25;;;5.00;99.90;;;;;;4824961;29;20300;-80
2021/03/23 01:30:19;;;;;;;13.48;9.48;;;5.10;99.90;;;;;;4825498;29;20220;-79
2021/03/23 01:32:45;;;;;;;21.45;11.07;;;5.00;99.90;;;;;;4824325;29;20783;-81
2021/03/23 01:35:13;;;;;;;15.52;10.50;;;4.90;99.90;;;;;;4825134;29;20225;-79
2021/03/23 01:37:40;;;;;;;15.93;9.50;;;4.90;99.90;;;;;;4824805;29;20522;-79
2021/03/23 01:40:08;;;;;;;17.90;10.90;;;4.90;99.90;;;;;;4824877;29;20218;-79
2021/03/23 01:42:43;;;;;;;16.20;12.30;;;4.80;99.90;;;;;;4824968;29;20210;-80
2021/03/23 01:45:23;;;;;;;14.80;10.75;;;4.80;99.90;;;;;;4825000;29;20213;-79
2021/03/23 01:47:51;;;;;;;12.32;9.95;;;4.70;99.90;;;;;;4824655;29;20225;-80
2021/03/23 01:50:19;;;;;;;17.17;11.43;;;4.70;99.90;;;;;;4825223;29;20213;-79
2021/03/23 01:52:49;;;;;;;17.05;11.77;;;4.70;99.90;;;;;;4824904;29;20243;-79
2021/03/23 01:55:16;;;;;;;14.95;11.63;;;4.70;99.90;;;;;;4817689;29;20218;-79
2021/03/23 01:57:46;;;;;;;19.05;11.35;;;4.60;99.90;;;;;;4824435;29;20232;-80
2021/03/23 02:00:13;;;;;;;21.67;12.00;;;4.60;99.90;;;;;;4825249;29;20215;-79
2021/03/23 02:02:40;;;;;;;16.70;10.25;;;4.70;99.90;;;;;;4824483;29;20477;-80
2021/03/23 02:05:08;;;;;;;17.48;11.98;;;4.70;99.90;;;;;;4824870;29;20247;-78
2021/03/23 02:07:40;;;;;;;18.77;12.77;;;4.70;99.90;;;;;;4824475;29;20230;-79
2021/03/23 02:10:07;;;;;;;13.35;9.25;;;4.70;99.90;;;;;;4824721;29;20202;-79
2021/03/23 02:12:34;;;;;;;20.20;12.23;;;4.80;99.90;;;;;;4824086;29;20210;-79
2021/03/23 02:15:00;;;;;;;13.80;11.13;;;4.80;99.90;;;;;;4824819;29;20233;-79
2021/03/23 02:17:30;;;;;;;14.43;11.05;;;4.90;99.90;;;;;;4823959;29;20305;-79
2021/03/23 02:19:58;;;;;;;16.27;12.93;;;4.80;99.90;;;;;;4825014;29;20665;-79
2021/03/23 02:22:27;;;;;;;19.60;11.00;;;4.90;99.90;;;;;;4825091;29;20219;-80
2021/03/23 02:24:54;;;;;;;14.77;10.30;;;4.90;99.90;;;;;;4824843;29;20218;-81
2021/03/23 02:27:22;;;;;;;13.63;11.30;;;4.90;99.90;;;;;;4817469;29;20230;-83
2021/03/23 02:29:50;;;;;;;17.55;10.60;;;4.80;99.90;;;;;;4819940;29;20518;-82
2021/03/23 02:32:16;;;;;;;18.73;11.68;;;4.80;99.90;;;;;;4820404;29;20214;-81
2021/03/23 02:34:42;;;;;;;17.63;10.98;;;4.80;99.90;;;;;;4822741;29;20227;-79
2021/03/23 02:37:09;;;;;;;16.73;11.88;;;4.70;99.90;;;;;;4822750;29;20751;-78
2021/03/23 02:39:36;;;;;;;20.92;12.93;;;4.70;99.90;;;;;;4822327;29;20214;-80
2021/03/23 02:42:03;;;;;;;14.43;11.63;;;4.60;99.90;;;;;;4822341;29;20233;-79
2021/03/23 02:44:37;;;;;;;24.35;16.45;;;4.60;99.90;;;;;;4822566;29;20225;-80
2021/03/23 02:47:04;;;;;;;23.30;12.93;;;4.60;99.90;;;;;;4822048;29;20238;-78
2021/03/23 02:49:30;;;;;;;25.90;15.52;;;4.50;99.90;;;;;;4822377;29;20218;-78
2021/03/23 02:51:56;;;;;;;23.65;14.70;;;4.50;99.90;;;;;;4822146;29;20214;-79
2021/03/23 02:54:23;;;;;;;23.60;16.48;;;4.50;99.90;;;;;;4822484;29;20225;-79
2021/03/23 02:56:50;;;;;;;24.60;14.18;;;4.50;99.90;;;;;;4822732;29;20267;-78
2021/03/23 02:59:16;;;;;;;23.58;14.63;;;4.40;99.90;;;;;;4822287;29;20222;-78
2021/03/23 03:01:42;;;;;;;23.90;15.98;;;4.40;99.90;;;;;;4822856;29;20222;-80
2021/03/23 03:04:09;;;;;;;20.17;12.50;;;4.50;99.90;;;;;;4823059;29;20305;-77
2021/03/23 03:06:35;;;;;;;25.45;15.20;;;4.40;99.90;;;;;;4823060;29;20339;-80
2021/03/23 03:09:01;;;;;;;24.58;17.10;;;4.50;99.90;;;;;;4821789;29;20244;-78
2021/03/23 03:11:28;;;;;;;22.70;14.18;;;4.50;99.90;;;;;;4821850;29;20235;-79
2021/03/23 03:13:55;;;;;;;18.38;13.32;;;4.50;99.90;;;;;;4821663;29;20804;-78
2021/03/23 03:16:21;;;;;;;22.75;16.02;;;4.50;99.90;;;;;;4821583;29;20237;-78
2021/03/23 03:18:48;;;;;;;25.13;17.08;;;4.50;99.90;;;;;;4822278;29;20274;-77
2021/03/23 03:21:14;;;;;;;24.73;15.55;;;4.60;99.90;;;;;;4821850;29;20218;-78
2021/03/23 03:23:40;;;;;;;28.17;19.52;;;4.60;99.90;;;;;;4822202;29;20219;-78
2021/03/23 03:26:07;;;;;;;27.02;16.55;;;4.70;99.90;;;;;;4820499;29;20242;-78
2021/03/23 03:28:34;;;;;;;20.88;14.20;;;4.70;99.90;;;;;;4820805;29;20217;-79
2021/03/23 03:31:01;;;;;;;26.30;16.83;;;4.90;99.90;;;;;;4820951;29;20306;-77
2021/03/23 03:33:28;;;;;;;26.45;16.20;;;4.80;99.90;;;;;;4820029;29;20281;-78
2021/03/23 03:35:54;;;;;;;30.02;17.63;;;4.70;99.90;;;;;;4821059;29;20267;-79
2021/03/23 03:38:23;;;;;;;29.00;17.52;;;4.80;99.90;;;;;;4821468;29;20240;-78
2021/03/23 03:40:52;;;;;;;30.83;18.10;;;4.90;99.90;;;;;;4821915;29;20207;-78
2021/03/23 03:43:20;;;;;;;29.35;16.30;;;4.90;99.90;;;;;;4821222;29;20214;-78
2021/03/23 03:45:47;;;;;;;28.35;19.17;;;4.90;99.90;;;;;;4821749;29;20240;-78
2021/03/23 03:48:14;;;;;;;30.63;19.85;;;4.80;99.90;;;;;;4822112;29;20218;-78
2021/03/23 03:50:41;;;;;;;35.72;19.15;;;4.80;99.90;;;;;;4821931;29;20218;-78
2021/03/23 03:53:08;;;;;;;22.67;18.58;;;4.80;99.90;;;;;;4821801;29;20214;-78
2021/03/23 03:55:36;;;;;;;27.83;19.00;;;4.70;99.90;;;;;;4821163;29;20257;-78
2021/03/23 03:58:03;;;;;;;25.85;17.00;;;4.60;99.90;;;;;;4821272;29;20241;-78
2021/03/23 04:00:31;;;;;;;24.80;16.05;;;4.70;99.90;;;;;;4821196;29;20216;-78
2021/03/23 04:02:58;;;;;;;27.13;15.40;;;4.70;99.90;;;;;;4821674;29;20215;-78
2021/03/23 04:05:29;;;;;;;26.23;18.00;;;4.80;99.90;;;;;;4821534;29;20225;-78
2021/03/23 04:07:55;;;;;;;24.67;14.65;;;4.80;99.90;;;;;;4821075;29;20677;-78
2021/03/23 04:10:22;;;;;;;25.33;15.70;;;4.80;99.90;;;;;;4821261;29;20242;-78
2021/03/23 04:12:48;;;;;;;29.02;16.67;;;4.70;99.90;;;;;;4820924;29;20214;-79
2021/03/23 04:15:18;;;;;;;25.98;16.77;;;4.60;99.90;;;;;;4820806;29;20244;-78
2021/03/23 04:17:44;;;;;;;27.52;16.77;;;4.60;99.90;;;;;;4821208;29;20274;-78
2021/03/23 04:20:12;;;;;;;27.60;18.65;;;4.70;99.90;;;;;;4821415;29;20210;-78
2021/03/23 04:22:39;;;;;;;30.42;18.10;;;4.60;99.90;;;;;;4821554;29;20218;-78
2021/03/23 04:25:07;;;;;;;23.83;16.58;;;4.70;99.90;;;;;;4822056;29;20251;-77
2021/03/23 04:27:34;;;;;;;26.70;16.55;;;4.80;99.90;;;;;;4822129;29;20287;-78
2021/03/23 04:30:00;;;;;;;26.10;17.27;;;4.70;99.90;;;;;;4821781;29;20223;-81
2021/03/23 04:32:26;;;;;;;27.00;17.13;;;4.70;99.90;;;;;;4823134;29;20218;-80
2021/03/23 04:34:52;;;;;;;25.13;15.20;;;4.60;99.90;;;;;;4822846;29;20215;-80
2021/03/23 04:37:18;;;;;;;28.95;16.55;;;4.60;99.90;;;;;;4822693;29;20301;-80
2021/03/23 04:39:46;;;;;;;25.73;16.02;;;4.70;99.90;;;;;;4822858;29;20214;-81
2021/03/23 04:42:13;;;;;;;23.17;16.65;;;4.70;99.90;;;;;;4826434;29;20275;-79
2021/03/23 04:44:39;;;;;;;24.73;15.40;;;4.60;99.90;;;;;;4827000;29;20252;-80
2021/03/23 04:47:06;;;;;;;27.33;16.80;;;4.70;99.90;;;;;;4826382;29;20339;-80
2021/03/23 04:49:32;;;;;;;27.08;16.48;;;4.60;99.90;;;;;;4826708;29;20233;-80
2021/03/23 04:51:59;;;;;;;24.73;15.52;;;4.70;99.90;;;;;;4826265;29;20224;-81
2021/03/23 04:54:25;;;;;;;26.75;16.55;;;4.80;99.90;;;;;;4826558;29;20224;-79
2021/03/23 04:56:53;;;;;;;24.80;16.30;;;4.80;99.90;;;;;;4826307;29;20272;-80
2021/03/23 04:59:19;;;;;;;23.13;16.88;;;4.90;99.90;;;;;;4826541;29;20229;-81
2021/03/23 05:01:45;;;;;;;26.52;17.20;;;5.00;99.90;;;;;;4826044;29;20277;-81
2021/03/23 05:04:15;;;;;;;23.65;15.65;;;5.10;99.90;;;;;;4825658;29;20235;-79
2021/03/23 05:06:42;;;;;;;23.10;15.63;;;5.20;99.90;;;;;;4826042;29;20249;-80
2021/03/23 05:09:08;;;;;;;24.55;15.35;;;5.20;99.90;;;;;;4825623;29;20210;-80
2021/03/23 05:11:35;;;;;;;26.42;18.92;;;5.30;99.90;;;;;;4825002;29;20218;-81
2021/03/23 05:14:04;;;;;;;27.80;17.73;;;5.20;99.90;;;;;;4825646;29;20225;-80
2021/03/23 05:16:31;;;;;;;23.48;16.45;;;5.20;99.90;;;;;;4825622;29;20723;-81
2021/03/23 05:18:57;;;;;;;24.45;16.38;;;5.20;99.90;;;;;;4825336;29;20281;-80
2021/03/23 05:21:24;;;;;;;24.15;16.75;;;5.20;99.90;;;;;;4819231;29;20244;-83
2021/03/23 05:23:52;;;;;;;23.65;15.45;;;5.20;99.90;;;;;;4816189;29;20214;-82
2021/03/23 05:26:19;;;;;;;28.92;18.77;;;5.30;99.90;;;;;;4816032;29;20234;-83
2021/03/23 05:28:47;;;;;;;25.38;15.43;;;5.30;99.90;;;;;;4822073;29;20225;-81
2021/03/23 05:31:15;;;;;;;23.92;16.60;;;5.40;99.90;;;;;;4820592;29;20222;-82
2021/03/23 05:33:41;;;;;;;25.48;15.70;;;5.40;99.90;;;;;;4817714;29;20223;-83
2021/03/23 05:36:08;;;;;;;22.40;15.82;;;5.50;99.90;;;;;;4819116;29;20245;-79
2021/03/23 05:38:35;;;;;;;29.70;18.08;;;5.50;99.90;;;;;;4822830;29;20261;-79
2021/03/23 05:41:04;;;;;;;26.63;17.92;;;5.60;99.90;;;;;;4822256;29;20281;-80
2021/03/23 05:43:53;;;;;;;29.42;15.75;;;5.60;99.90;;;;;;4820479;29;20219;-79
2021/03/23 05:46:31;;;;;;;23.98;17.02;;;5.70;99.90;;;;;;4820773;29;20256;-81
2021/03/23 05:49:27;;;;;;;28.40;16.88;;;5.60;99.90;;;;;;4820279;29;20248;-80
2021/03/23 05:51:59;;;;;;;26.60;17.65;;;5.50;99.90;;;;;;4816469;29;20214;-80
2021/03/23 05:54:34;;;;;;;22.10;16.00;;;5.50;99.90;;;;;;4820343;29;20267;-80
2021/03/23 05:57:06;;;;;;;22.77;16.73;;;5.40;99.90;;;;;;4820489;29;20237;-81
2021/03/23 05:59:40;;;;;;;29.08;17.63;;;5.40;99.90;;;;;;4819778;29;20205;-80
2021/03/23 06:02:19;;;;;;;32.45;17.33;;;5.50;99.90;;;;;;4820197;29;20202;-81
2021/03/23 06:04:50;;;;;;;26.05;16.60;;;5.40;99.90;;;;;;4820214;29;20253;-81
2021/03/23 06:07:17;;;;;;;31.83;18.70;;;5.50;99.90;;;;;;4819684;29;20248;-81
2021/03/23 06:09:44;;;;;;;25.35;17.10;;;5.50;99.90;;;;;;4819620;29;20230;-80
2021/03/23 06:12:28;;;;;;;26.80;18.02;;;5.50;99.90;;;;;;4818995;29;20210;-81
2021/03/23 06:15:03;;;;;;;30.73;18.23;;;5.40;99.90;;;;;;4819368;29;20219;-80
2021/03/23 06:17:39;;;;;;;26.15;16.83;;;5.40;99.90;;;;;;4818879;29;20234;-81
2021/03/23 06:20:24;;;;;;;28.77;19.17;;;5.50;99.90;;;;;;4818186;29;20220;-81
2021/03/23 06:23:19;;;;;;;29.48;18.80;;;5.50;99.90;;;;;;4819143;29;20219;-81
2021/03/23 06:25:48;;;;;;;32.00;17.73;;;5.40;99.90;;;;;;4819137;29;20240;-80
2021/03/23 06:28:33;;;;;;;27.33;18.17;;;5.40;99.90;;;;;;4819112;29;20677;-81
2021/03/23 06:31:06;;;;;;;30.42;16.63;;;5.50;99.90;;;;;;4818883;29;20658;-81
2021/03/23 06:33:33;;;;;;;28.55;19.17;;;5.40;99.90;;;;;;4816593;29;20217;-80
2021/03/23 06:36:02;;;;;;;27.77;16.92;;;5.20;99.90;;;;;;4818006;29;20235;-81
2021/03/23 06:38:30;;;;;;;27.52;16.98;;;5.20;99.90;;;;;;4818706;29;20324;-80
2021/03/23 06:41:17;;;;;;;26.85;17.77;;;5.20;99.90;;;;;;4818224;29;20214;-80
2021/03/23 06:43:45;;;;;;;26.50;16.83;;;5.30;99.90;;;;;;4817572;29;20206;-81
2021/03/23 06:46:37;;;;;;;28.08;18.52;;;5.30;99.90;;;;;;4818479;29;20813;-80
2021/03/23 06:49:26;;;;;;;28.27;18.50;;;5.30;99.90;;;;;;4808575;29;20228;-80
2021/03/23 06:52:17;;;;;;;23.58;17.50;;;5.50;99.90;;;;;;4818118;29;20284;-80
2021/03/23 06:54:44;;;;;;;27.98;18.33;;;5.50;99.90;;;;;;4818176;29;20305;-80
2021/03/23 06:57:18;;;;;;;27.85;18.27;;;5.50;99.90;;;;;;4818129;29;20239;-81
2021/03/23 06:59:48;;;;;;;29.05;19.17;;;5.50;99.90;;;;;;4820412;29;20568;-81
2021/03/23 07:02:33;;;;;;;27.38;17.52;;;5.60;99.90;;;;;;4819247;29;20219;-81
2021/03/23 07:05:32;;;;;;;26.23;17.83;;;5.60;99.90;;;;;;4819550;29;20229;-80
2021/03/23 07:08:01;;;;;;;27.38;16.90;;;5.70;99.90;;;;;;4819424;29;20216;-81
2021/03/23 07:10:31;;;;;;;29.00;17.50;;;5.90;99.90;;;;;;4819905;29;20218;-81
2021/03/23 07:12:58;;;;;;;30.73;19.88;;;6.00;99.90;;;;;;4819691;29;20219;-81
2021/03/23 07:15:26;;;;;;;26.10;19.70;;;6.20;99.90;;;;;;4820190;29;20286;-81
2021/03/23 07:17:55;;;;;;;28.27;20.50;;;6.30;99.90;;;;;;4819308;29;20262;-81
2021/03/23 07:20:40;;;;;;;25.45;17.70;;;6.50;99.90;;;;;;4820139;29;20699;-82
2021/03/23 07:23:30;;;;;;;30.88;17.55;;;6.60;99.90;;;;;;4820555;29;20218;-81
2021/03/23 07:26:12;;;;;;;28.75;18.85;;;6.70;99.90;;;;;;4820054;29;20309;-81
2021/03/23 07:28:42;;;;;;;28.63;16.75;;;6.80;99.90;;;;;;4820056;29;20210;-81
2021/03/23 07:31:14;;;;;;;28.05;18.13;;;6.70;99.90;;;;;;4819403;29;20206;-80
2021/03/23 07:34:02;;;;;;;34.15;18.58;;;6.80;99.90;;;;;;4819348;29;20210;-81
2021/03/23 07:36:35;;;;;;;28.70;19.33;;;6.90;99.90;;;;;;4812509;29;20286;-81
2021/03/23 07:39:07;;;;;;;25.38;16.80;;;7.00;99.90;;;;;;4817756;29;20274;-81
2021/03/23 07:41:37;;;;;;;29.23;21.58;;;7.00;99.90;;;;;;4818927;29;20926;-80
2021/03/23 07:44:12;;;;;;;24.48;19.40;;;6.90;99.90;;;;;;4816135;29;20214;-80
2021/03/23 07:46:43;;;;;;;24.55;16.88;;;6.80;99.90;;;;;;4818146;29;20234;-81
2021/03/23 07:49:33;;;;;;;27.95;19.20;;;6.60;99.90;;;;;;4819109;29;20207;-82
2021/03/23 07:52:05;;;;;;;28.45;19.20;;;6.80;99.90;;;;;;4812876;29;20218;-83
2021/03/23 07:54:34;;;;;;;31.70;20.80;;;6.90;99.90;;;;;;4818388;29;20274;-82
2021/03/23 07:57:40;;;;;;;28.48;18.83;;;7.00;99.90;;;;;;4820349;29;20244;-82
2021/03/23 08:00:49;;;;;;;;;;;;;;;;;;;;;
2021/03/23 08:13:58;;;;;;;24.35;15.43;;;7.10;99.90;;;;;;4695182;30;20219;-81
2021/03/23 08:16:49;;;;;;;20.98;14.80;;;7.10;99.90;;;;;;4748875;30;20239;-80
2021/03/23 08:19:49;;;;;;;23.88;16.38;;;7.20;99.90;;;;;;4810647;30;20215;-81
2021/03/23 08:22:51;;;;;;;20.77;16.10;;;7.30;99.90;;;;;;4808797;30;20279;-82
2021/03/23 08:25:27;;;;;;;25.17;19.63;;;7.40;99.90;;;;;;4806337;30;20219;-80
2021/03/23 08:28:13;;;;;;;23.73;17.00;;;7.60;99.90;;;;;;4808571;30;20217;-80
2021/03/23 08:30:52;;;;;;;27.63;19.73;;;7.80;99.90;;;;;;4810059;30;20277;-82
2021/03/23 08:33:51;;;;;;;22.33;17.80;;;7.80;99.90;;;;;;4809153;29;20219;-81
2021/03/23 08:36:53;;;;;;;21.45;16.05;;;7.80;99.90;;;;;;4807100;30;20266;-81
2021/03/23 08:39:28;;;;;;;26.02;16.77;;;8.00;99.90;;;;;;4779721;30;20730;-81
2021/03/23 08:42:00;;;;;;;25.73;16.20;;;8.30;99.90;;;;;;4808208;30;20251;-82
2021/03/23 08:44:35;;;;;;;24.52;16.88;;;8.60;99.90;;;;;;4809584;30;20298;-81
2021/03/23 08:47:19;;;;;;;22.60;16.40;;;8.80;99.90;;;;;;4809049;30;20265;-79
2021/03/23 08:49:54;;;;;;;26.02;17.13;;;8.90;99.90;;;;;;4803805;30;20230;-78
2021/03/23 08:52:36;;;;;;;24.33;16.38;;;9.10;99.90;;;;;;4801342;29;20250;-79
2021/03/23 08:55:06;;;;;;;19.00;14.27;;;9.30;99.90;;;;;;4805297;30;20227;-80
2021/03/23 08:57:48;;;;;;;23.75;15.20;;;9.40;99.90;;;;;;4801392;30;20240;-80
2021/03/23 09:00:45;;;;;;;25.92;16.40;;;9.30;99.30;;;;;;4802836;30;20274;-79
2021/03/23 09:03:46;;;;;;;17.88;13.35;;;9.60;99.50;;;;;;4815422;29;20666;-80
2021/03/23 09:06:18;;;;;;;19.38;13.90;;;9.70;99.20;;;;;;4815185;29;20245;-79
2021/03/23 09:08:50;;;;;;;22.35;15.45;;;9.80;98.60;;;;;;4820358;29;20221;-79
2021/03/23 09:11:33;;;;;;;20.98;15.25;;;10.10;97.20;;;;;;4818078;29;20206;-81
2021/03/23 09:14:23;;;;;;;23.42;15.48;;;10.20;97.00;;;;;;4803506;29;20311;-79
2021/03/23 09:17:09;;;;;;;16.00;11.43;;;10.40;97.20;;;;;;4817427;29;20240;-79
2021/03/23 09:19:40;;;;;;;16.63;12.35;;;10.60;96.70;;;;;;4819182;29;20295;-79
2021/03/23 09:22:22;;;;;;;17.37;10.70;;;10.90;95.40;;;;;;4824383;29;20213;-79
2021/03/23 09:24:48;;;;;;;15.83;10.87;;;10.90;94.80;;;;;;4818079;29;20474;-80
2021/03/23 09:27:55;;;;;;;14.70;10.97;;;11.00;93.90;;;;;;4821906;29;20473;-81
2021/03/23 09:30:48;;;;;;;12.20;9.13;;;11.10;93.80;;;;;;4823279;29;20441;-81
2021/03/23 09:33:33;;;;;;;11.20;9.17;;;11.10;93.30;;;;;;4819369;29;20493;-80
2021/03/23 09:36:40;;;;;;;10.60;9.40;;;11.30;92.70;;;;;;4818444;29;20480;-79
2021/03/23 09:39:33;;;;;;;11.30;7.90;;;11.30;92.10;;;;;;4820427;29;20484;-79
2021/03/23 09:42:21;;;;;;;7.83;6.50;;;11.20;91.40;;;;;;4819465;29;20965;-81
2021/03/23 09:44:59;;;;;;;6.73;5.50;;;10.90;90.50;;;;;;4821608;29;20964;-81
2021/03/23 09:47:39;;;;;;;6.07;5.57;;;11.00;90.90;;;;;;4819876;29;20498;-82
2021/03/23 09:50:26;;;;;;;7.80;6.80;;;11.10;90.20;;;;;;4821060;29;20554;-79
2021/03/23 09:53:00;;;;;;;8.77;5.40;;;11.00;89.60;;;;;;4821409;29;20554;-82
2021/03/23 09:55:28;;;;;;;6.50;5.20;;;10.70;88.10;;;;;;4821185;29;21003;-79
2021/03/23 09:57:56;;;;;;;7.77;6.97;;;10.60;88.50;;;;;;4820149;29;20519;-80
2021/03/23 10:00:26;;;;;;;6.43;5.18;;;10.60;87.70;;;;;;4824044;29;20877;-79
2021/03/23 10:02:54;;;;;;;7.67;6.00;;;10.60;88.00;;;;;;4822041;29;20247;-82
2021/03/23 10:05:23;;;;;;;6.17;5.20;;;10.70;88.90;;;;;;4822300;29;20492;-81
2021/03/23 10:07:51;;;;;;;7.10;5.60;;;10.90;89.80;;;;;;4820263;29;20873;-80
2021/03/23 10:10:25;;;;;;;9.53;6.10;;;11.00;89.40;;;;;;4818592;29;21011;-79
2021/03/23 10:13:23;;;;;;;9.37;7.20;;;10.90;87.40;;;;;;4821391;29;20439;-81
2021/03/23 10:15:49;;;;;;;9.37;6.37;;;10.90;87.80;;;;;;4821622;29;20494;-83
2021/03/23 10:18:23;;;;;;;8.63;6.95;;;10.80;86.70;;;;;;4823838;29;20505;-84
2021/03/23 10:20:57;;;;;;;9.43;7.67;;;10.30;87.20;;;;;;4823007;29;20283;-82
2021/03/23 10:23:25;;;;;;;6.63;5.05;;;10.20;87.80;;;;;;4821177;29;20468;-82
2021/03/23 10:25:52;;;;;;;7.28;6.20;;;10.20;88.90;;;;;;4821385;29;20322;-81
2021/03/23 10:28:25;;;;;;;6.93;5.68;;;10.30;89.60;;;;;;4821623;29;20232;-81
2021/03/23 10:30:58;;;;;;;9.60;6.57;;;10.20;88.90;;;;;;4821525;29;20196;-81
2021/03/23 10:33:29;;;;;;;10.05;5.95;;;10.30;89.40;;;;;;4820041;29;20446;-81
2021/03/23 10:35:58;;;;;;;8.50;6.17;;;10.30;89.50;;;;;;4820930;29;20240;-83
2021/03/23 10:38:39;;;;;;;6.78;5.57;;;10.50;89.20;;;;;;4819943;29;20952;-80
2021/03/23 10:41:33;;;;;;;8.05;5.70;;;10.50;89.10;;;;;;4821125;29;20210;-81
2021/03/23 10:44:19;;;;;;;6.70;5.90;;;10.60;88.40;;;;;;4821586;29;20312;-83
2021/03/23 10:46:46;;;;;;;7.30;5.20;;;10.20;86.60;;;;;;4821820;29;20548;-82
2021/03/23 10:49:15;;;;;;;5.65;4.88;;;9.90;87.50;;;;;;4813439;29;20442;-80
2021/03/23 10:51:44;;;;;;;6.20;5.30;;;9.50;87.70;;;;;;4832207;29;20218;-80
2021/03/23 10:54:20;;;;;;;5.05;4.50;;;9.30;88.70;;;;;;4838582;29;20278;-80
2021/03/23 10:56:48;;;;;;;7.55;6.57;;;9.00;89.20;;;;;;4837500;29;20233;-80
2021/03/23 10:59:25;;;;;;;6.45;5.70;;;8.90;90.40;;;;;;4823102;29;20274;-80
2021/03/23 11:02:00;;;;;;;8.70;5.97;;;8.90;91.00;;;;;;4839129;29;20208;-80
2021/03/23 11:04:28;;;;;;;7.78;5.72;;;9.20;91.30;;;;;;4840302;29;20197;-80
2021/03/23 11:06:55;;;;;;;7.63;5.68;;;9.30;91.20;;;;;;4839503;29;20241;-80
2021/03/23 11:09:22;;;;;;;7.78;5.80;;;9.40;90.70;;;;;;4839645;29;20277;-80
2021/03/23 11:11:49;;;;;;;7.90;5.90;;;9.50;90.40;;;;;;4838336;29;20221;-80
2021/03/23 11:14:16;;;;;;;11.73;8.23;;;9.50;90.20;;;;;;4838975;29;20194;-80
2021/03/23 11:16:45;;;;;;;7.05;5.50;;;9.70;90.40;;;;;;4828724;29;20246;-80
2021/03/23 11:19:19;;;;;;;7.45;5.95;;;9.80;90.80;;;;;;4832307;29;20234;-79
2021/03/23 11:21:46;;;;;;;6.95;5.63;;;10.00;89.00;;;;;;4835632;29;20667;-80
2021/03/23 11:24:13;;;;;;;9.95;5.82;;;10.00;87.30;;;;;;4834027;29;20221;-80
2021/03/23 11:26:43;;;;;;;5.72;4.75;;;10.00;87.50;;;;;;4832927;29;20235;-79
2021/03/23 11:29:11;;;;;;;6.80;5.73;;;10.00;87.00;;;;;;4837352;29;20195;-81
2021/03/23 11:31:37;;;;;;;5.80;5.03;;;10.00;87.80;;;;;;4835726;29;20962;-81
2021/03/23 11:34:05;;;;;;;5.57;4.97;;;10.10;87.80;;;;;;4836169;29;20460;-81
2021/03/23 11:36:32;;;;;;;7.10;6.43;;;10.30;88.00;;;;;;4835711;29;20526;-79
2021/03/23 11:39:00;;;;;;;11.65;6.20;;;10.40;87.30;;;;;;4838786;29;20237;-82
2021/03/23 11:41:32;;;;;;;9.95;5.90;;;10.50;86.40;;;;;;4837394;29;20218;-83
2021/03/23 11:44:01;;;;;;;8.73;6.43;;;10.50;85.70;;;;;;4837810;29;20290;-82
2021/03/23 11:46:37;;;;;;;10.10;6.78;;;10.00;85.70;;;;;;4837207;29;20251;-82
2021/03/23 11:49:09;;;;;;;7.75;5.85;;;9.70;87.70;;;;;;4836167;29;20213;-83
2021/03/23 11:51:55;;;;;;;7.10;6.30;;;9.50;88.50;;;;;;4839084;29;20270;-84
2021/03/23 11:54:26;;;;;;;10.80;7.22;;;9.40;89.30;;;;;;4836296;29;20213;-81
2021/03/23 11:56:53;;;;;;;6.93;6.22;;;9.50;90.60;;;;;;4838116;29;20238;-81
2021/03/23 11:59:20;;;;;;;7.90;5.38;;;9.60;90.60;;;;;;4839998;29;20316;-82
2021/03/23 12:01:47;;;;;;;5.63;5.00;;;9.60;90.10;;;;;;4838971;29;20221;-80
2021/03/23 12:04:14;;;;;;;8.93;5.38;;;9.60;90.00;;;;;;4840633;29;20218;-80
2021/03/23 12:06:54;;;;;;;7.28;6.03;;;9.50;89.70;;;;;;4839446;29;20297;-81
2021/03/23 12:09:43;;;;;;;10.43;8.90;;;9.60;89.60;;;;;;4836803;29;20211;-82
2021/03/23 12:12:54;;;;;;;7.70;5.90;;;9.40;88.80;;;;;;4838087;29;20305;-81
2021/03/23 12:15:24;;;;;;;6.90;5.65;;;9.30;89.10;;;;;;4845162;29;20284;-81
2021/03/23 12:17:54;;;;;;;6.40;5.80;;;9.20;89.70;;;;;;4843843;29;20324;-80
2021/03/23 12:20:30;;;;;;;9.57;6.82;;;9.20;90.00;;;;;;4845298;29;20198;-80
2021/03/23 12:22:58;;;;;;;7.05;5.97;;;9.30;89.70;;;;;;4844161;29;20236;-80
2021/03/23 12:25:26;;;;;;;7.63;5.90;;;9.20;90.10;;;;;;4843594;29;20218;-80
2021/03/23 12:27:52;;;;;;;6.65;4.82;;;9.30;90.20;;;;;;4845078;29;20215;-80
2021/03/23 12:30:27;;;;;;;9.43;6.00;;;9.30;89.50;;;;;;4846235;29;20279;-81
2021/03/23 12:32:55;;;;;;;8.85;6.53;;;9.20;89.60;;;;;;4842548;29;20214;-81
2021/03/23 12:35:23;;;;;;;11.45;5.82;;;9.30;89.80;;;;;;4836458;29;20211;-82
2021/03/23 12:38:00;;;;;;;8.53;6.53;;;9.50;90.30;;;;;;4823213;29;20716;-81
2021/03/23 12:40:36;;;;;;;10.13;8.30;;;9.70;90.60;;;;;;4826467;29;20538;-79
2021/03/23 12:43:19;;;;;;;;;;;;;;;;;;;;;
2021/03/23 12:45:48;;;;;;;7.50;6.70;;;10.10;90.50;;;;;;4827287;29;20310;-82
2021/03/23 12:48:31;;;;;;;;;;;;;;;;;;;;;
2021/03/23 12:50:57;;;;;;;10.50;7.95;;;10.20;90.10;;;;;;4827551;29;20267;-81
2021/03/23 12:53:27;;;;;;;8.63;7.43;;;10.30;89.10;;;;;;4827290;29;20243;-82
2021/03/23 12:56:00;;;;;;;8.30;6.75;;;10.50;89.80;;;;;;4823596;29;20247;-84
2021/03/23 13:01:55;;;;;;;12.32;6.10;;;10.40;86.10;;;;;;4801879;29;20460;-83
2021/03/23 13:04:38;;;;;;;8.60;6.60;;;10.40;86.00;;;;;;4822017;29;20219;-81
2021/03/23 13:07:15;;;;;;;7.10;6.13;;;10.40;85.70;;;;;;4813294;29;20955;-82
2021/03/23 13:09:42;;;;;;;8.73;6.53;;;10.30;85.50;;;;;;4815174;29;20215;-83
2021/03/23 13:12:10;;;;;;;8.20;6.65;;;10.30;85.80;;;;;;4811269;29;20212;-83
2021/03/23 13:14:38;;;;;;;7.40;6.28;;;10.10;85.80;;;;;;4811719;29;20220;-82
2021/03/23 13:17:04;;;;;;;8.80;7.20;;;10.00;86.40;;;;;;4811800;29;20276;-83
2021/03/23 13:19:31;;;;;;;9.55;6.43;;;10.00;86.70;;;;;;4811799;29;20215;-84
2021/03/23 13:22:00;;;;;;;9.27;7.55;;;10.00;86.40;;;;;;4813287;29;20216;-83
2021/03/23 13:24:32;;;;;;;10.63;7.35;;;10.10;87.40;;;;;;4815010;29;20240;-82
2021/03/23 13:27:00;;;;;;;9.30;7.63;;;10.20;88.90;;;;;;4820692;29;20298;-83